KCEC/CEC METAR and TAF weather

Enter ICAO airport designator
Station Type Date Time Source
KCEC METAR 2022/06/28 08:56 UTC NOAA

KCEC 280856Z AUTO 08003KT 10SM OVC013 13/11 A3017 RMK AO2 SLP216 T01330106 50000


Station Type Date Time Source
KCEC Decoded METAR 2022/06/28 08:56 UTC NOAA

CRESCENT CITY MC NAMARA, CA, United States (KCEC) 41-47N 124-14W
Jun 28, 2022 - 04:56 AM EDT / 2022.06.28 0856 UTC
Wind: from the E (080 degrees) at 3 MPH (3 KT):0
Visibility: 10 mile(s):0
Sky conditions: overcast
Temperature: 55.9 F (13.3 C)
Dew Point: 51.1 F (10.6 C)
Relative Humidity: 83%
Pressure (altimeter): 30.17 in. Hg (1021 hPa)
Pressure tendency: 0.00 inches (0.0 hPa) higher than three hours ago
ob: KCEC 280856Z AUTO 08003KT 10SM OVC013 13/11 A3017 RMK AO2 SLP216 T01330106 50000
cycle: 9

Station Type Date Time Source
KCEC TAF 2022/06/28 06:39 UTC NOAA

TAF KCEC 280536Z 2806/2906 20004KT 5SM BR OVC007
FM280900 16004KT 3/4SM BR OVC004
FM281200 VRB03KT 1SM BR OVC004
FM281600 27004KT 5SM HZ OVC006
FM281900 30008KT P6SM SCT010

Example: see airport list